Time;durP1;ratioP1;P1;durP2;ratioP2;P2;SDS_P1;SDS_P2;PMS_P1;PMS_P2;Temp;Humidity;BMP_temperature;BMP_pressure;BME280_temperature;BME280_humidity;BME280_pressure;Samples;Min_cycle;Max_cycle;Signal;HPM_P1;HPM_P2
2022/10/08 00:01:31;;;;;;;17.15;3.33;;;;;;;8.55;100.00;99050.81;5066216;28;20024;-85
2022/10/08 00:03:56;;;;;;;14.77;3.65;;;;;;;8.31;100.00;99031.75;5059199;28;20031;-87
2022/10/08 00:06:28;;;;;;;15.55;3.13;;;;;;;8.54;100.00;99046.56;5047176;28;20215;-86
2022/10/08 00:09:01;;;;;;;18.17;3.47;;;;;;;8.44;100.00;99052.84;5064721;28;20029;-87
2022/10/08 00:11:32;;;;;;;10.70;2.30;;;;;;;8.33;100.00;99050.69;5064674;28;20516;-87
2022/10/08 00:13:58;;;;;;;16.25;2.92;;;;;;;8.42;100.00;99075.75;5063399;28;20119;-86
2022/10/08 00:16:25;;;;;;;16.05;3.25;;;;;;;8.54;100.00;99064.91;5064440;28;20029;-87
2022/10/08 00:18:53;;;;;;;13.38;3.80;;;;;;;8.53;100.00;99071.91;5061666;28;20715;-86
2022/10/08 00:21:25;;;;;;;14.90;2.78;;;;;;;8.24;100.00;99057.81;5045647;28;20036;-86
2022/10/08 00:23:53;;;;;;;18.73;3.13;;;;;;;8.28;100.00;99047.81;5062565;28;20414;-88
2022/10/08 00:26:23;;;;;;;13.40;4.00;;;;;;;8.13;100.00;99022.44;5064289;28;20033;-89
2022/10/08 00:28:50;;;;;;;11.40;2.40;;;;;;;8.44;100.00;99055.47;5063166;28;20032;-87
2022/10/08 00:31:20;;;;;;;14.50;2.47;;;;;;;8.28;100.00;99053.03;5057444;28;20035;-89
2022/10/08 00:33:55;;;;;;;15.85;2.65;;;;;;;8.40;100.00;99064.66;5047875;28;20128;-87
2022/10/08 00:36:23;;;;;;;12.25;2.45;;;;;;;8.38;100.00;99073.69;5061628;28;20428;-85
2022/10/08 00:38:53;;;;;;;11.43;2.40;;;;;;;8.29;100.00;99044.19;5063251;28;20074;-87
2022/10/08 00:41:21;;;;;;;12.30;2.40;;;;;;;8.50;100.00;99069.66;5061621;28;20536;-85
2022/10/08 00:43:52;;;;;;;12.18;1.90;;;;;;;8.46;100.00;99070.19;5065403;28;20036;-84
2022/10/08 00:46:26;;;;;;;10.20;1.55;;;;;;;8.51;100.00;99086.19;5044978;28;20033;-83
2022/10/08 00:48:56;;;;;;;6.32;1.73;;;;;;;8.33;100.00;99061.16;5046625;28;20045;-87
2022/10/08 00:51:23;;;;;;;15.85;2.28;;;;;;;8.64;100.00;99075.88;5064869;28;20039;-87
2022/10/08 00:53:49;;;;;;;10.50;1.70;;;;;;;8.40;100.00;99071.72;5064923;28;20031;-85
2022/10/08 00:56:15;;;;;;;8.07;1.80;;;;;;;8.46;100.00;99080.66;5058314;28;20040;-87
2022/10/08 00:58:42;;;;;;;10.13;1.85;;;;;;;8.28;100.00;99080.00;5062536;28;20451;-86
2022/10/08 01:01:08;;;;;;;13.70;1.92;;;;;;;8.39;100.00;99081.34;5058728;28;20033;-86
2022/10/08 01:03:34;;;;;;;10.55;2.55;;;;;;;8.38;100.00;99061.41;5062776;28;20086;-86
2022/10/08 01:06:09;;;;;;;6.28;1.77;;;;;;;8.36;100.00;99097.41;5045942;28;20513;-85
2022/10/08 01:09:22;;;;;;;11.80;1.80;;;;;;;8.20;100.00;99045.25;5061292;28;20028;-85
2022/10/08 01:11:57;;;;;;;12.02;2.33;;;;;;;8.47;100.00;99085.69;5045968;28;20044;-86
2022/10/08 01:14:40;;;;;;;4.70;1.48;;;;;;;8.53;100.00;99092.03;5061256;28;20021;-86
2022/10/08 01:17:25;;;;;;;12.20;1.70;;;;;;;8.24;100.00;99068.28;5059722;28;20032;-84
2022/10/08 01:20:09;;;;;;;11.13;2.20;;;;;;;8.71;100.00;99089.88;5062211;28;20036;-86
2022/10/08 01:23:15;;;;;;;6.53;1.50;;;;;;;8.47;100.00;99083.06;5060497;28;20068;-87
2022/10/08 01:25:53;;;;;;;6.85;1.77;;;;;;;8.64;100.00;99099.44;5056670;28;20032;-88
2022/10/08 01:28:39;;;;;;;11.88;1.80;;;;;;;8.61;100.00;99107.66;5059258;28;20033;-88
2022/10/08 01:31:17;;;;;;;8.88;2.10;;;;;;;8.44;100.00;99109.59;5065970;28;20032;-87
2022/10/08 01:34:09;;;;;;;10.60;2.53;;;;;;;8.55;100.00;99111.00;5057701;28;20375;-86
2022/10/08 01:36:45;;;;;;;14.25;2.63;;;;;;;8.36;100.00;99060.78;5053571;28;20037;-87
2022/10/08 01:39:16;;;;;;;11.32;2.80;;;;;;;8.43;100.00;99092.28;5065202;28;20025;-87
2022/10/08 01:41:48;;;;;;;14.93;2.72;;;;;;;8.67;100.00;99114.81;5057789;28;20028;-87
2022/10/08 01:44:22;;;;;;;9.98;2.65;;;;;;;8.51;100.00;99121.00;5062975;28;20063;-85
2022/10/08 01:46:50;;;;;;;12.52;2.50;;;;;;;8.55;100.00;99116.22;5060300;28;20469;-85
2022/10/08 01:49:21;;;;;;;18.85;3.67;;;;;;;8.35;100.00;99110.66;5060367;28;20032;-86
2022/10/08 01:51:55;;;;;;;16.42;3.25;;;;;;;8.55;100.00;99126.69;5061076;28;20518;-85
2022/10/08 01:54:24;;;;;;;15.48;3.95;;;;;;;8.56;100.00;99118.69;5059117;28;20060;-86
2022/10/08 01:56:53;;;;;;;10.63;3.40;;;;;;;8.54;100.00;99125.06;5040642;28;20086;-87
2022/10/08 01:59:45;;;;;;;14.90;3.53;;;;;;;8.44;100.00;99110.41;5059672;28;20151;-87
2022/10/08 02:02:23;;;;;;;18.40;3.55;;;;;;;8.54;100.00;99118.00;5061140;28;20541;-87
2022/10/08 02:04:52;;;;;;;15.10;3.35;;;;;;;8.61;100.00;99127.78;5062750;28;20032;-88
2022/10/08 02:07:21;;;;;;;16.35;3.28;;;;;;;8.55;100.00;99139.78;5063089;28;20557;-88
2022/10/08 02:09:51;;;;;;;18.48;2.80;;;;;;;8.54;100.00;99125.06;5061126;28;20116;-85
2022/10/08 02:12:19;;;;;;;18.10;2.83;;;;;;;8.68;100.00;99142.59;5062678;28;20028;-85
2022/10/08 02:14:56;;;;;;;18.23;3.40;;;;;;;8.74;100.00;99129.78;5058512;28;20464;-88
2022/10/08 02:17:36;;;;;;;18.15;3.28;;;;;;;8.75;100.00;99153.16;5059101;28;20060;-87
2022/10/08 02:20:29;;;;;;;14.55;2.75;;;;;;;8.62;100.00;99127.59;5064429;28;20044;-87
2022/10/08 02:23:05;;;;;;;14.38;3.42;;;;;;;8.56;100.00;99146.63;5061824;28;20029;-87
2022/10/08 02:25:45;;;;;;;14.95;4.10;;;;;;;8.66;100.00;99160.28;5061846;28;20490;-86
2022/10/08 02:28:19;;;;;;;16.63;5.50;;;;;;;8.64;100.00;99167.47;5043524;28;20106;-88
2022/10/08 02:30:49;;;;;;;20.15;5.28;;;;;;;8.73;100.00;99142.03;5060666;28;20037;-87
2022/10/08 02:33:24;;;;;;;28.58;7.60;;;;;;;8.74;100.00;99163.78;5063400;28;20501;-88
2022/10/08 02:35:52;;;;;;;24.00;5.93;;;;;;;8.53;100.00;99119.00;5059687;28;20034;-88
2022/10/08 02:38:45;;;;;;;26.60;7.18;;;;;;;9.03;100.00;99159.53;5041961;28;20028;-87
2022/10/08 02:41:14;;;;;;;24.67;7.97;;;;;;;8.75;100.00;99147.09;5041522;28;20064;-87
2022/10/08 02:43:45;;;;;;;26.13;8.40;;;;;;;9.00;100.00;99166.78;5042313;28;20029;-85
2022/10/08 02:46:21;;;;;;;17.58;9.55;;;;;;;8.91;100.00;99180.94;5056619;28;20032;-86
2022/10/08 02:49:09;;;;;;;25.45;8.52;;;;;;;8.83;100.00;99166.16;5039346;28;20387;-88
2022/10/08 02:51:38;;;;;;;23.63;8.88;;;;;;;9.09;100.00;99185.03;5058739;28;20044;-86
2022/10/08 02:54:07;;;;;;;29.67;9.60;;;;;;;9.08;100.00;99167.69;5062386;28;20107;-86
2022/10/08 02:56:45;;;;;;;32.38;10.43;;;;;;;9.38;100.00;99207.75;5048324;28;20521;-88
2022/10/08 02:59:13;;;;;;;28.75;13.27;;;;;;;9.31;100.00;99217.31;5063884;28;20103;-88
2022/10/08 03:01:47;;;;;;;31.88;11.90;;;;;;;9.16;100.00;99193.78;5058887;28;20108;-87
2022/10/08 03:04:17;;;;;;;26.40;12.63;;;;;;;9.02;100.00;99194.56;5042090;28;20107;-86
2022/10/08 03:06:44;;;;;;;26.65;11.02;;;;;;;9.11;100.00;99209.22;5054464;28;20457;-86
2022/10/08 03:09:13;;;;;;;26.05;10.05;;;;;;;8.82;100.00;99185.47;5058260;28;20033;-87
2022/10/08 03:11:39;;;;;;;27.13;10.50;;;;;;;8.80;100.00;99197.91;5060965;28;20033;-87
2022/10/08 03:14:08;;;;;;;18.10;9.13;;;;;;;8.87;100.00;99224.19;5056601;28;20119;-87
2022/10/08 03:16:38;;;;;;;19.13;9.57;;;;;;;8.83;100.00;99217.66;5058054;28;20021;-88
2022/10/08 03:19:05;;;;;;;27.08;11.57;;;;;;;8.47;100.00;99189.53;5041366;28;20041;-86
2022/10/08 03:21:31;;;;;;;20.48;11.77;;;;;;;8.64;100.00;99204.09;5062983;28;20509;-85
2022/10/08 03:23:57;;;;;;;30.75;12.07;;;;;;;8.66;100.00;99202.16;5055412;28;20024;-85
2022/10/08 03:26:22;;;;;;;28.60;12.68;;;;;;;8.54;100.00;99190.47;5060699;28;20554;-85
2022/10/08 03:28:51;;;;;;;25.52;12.10;;;;;;;8.56;100.00;99209.41;5056725;28;20052;-85
2022/10/08 03:31:16;;;;;;;23.98;11.77;;;;;;;8.50;100.00;99200.47;5059888;28;20032;-86
2022/10/08 03:33:42;;;;;;;31.27;13.43;;;;;;;8.60;100.00;99217.75;5063796;28;20038;-85
2022/10/08 03:36:08;;;;;;;29.13;12.25;;;;;;;8.41;100.00;99202.31;5057863;28;20051;-85
2022/10/08 03:38:34;;;;;;;31.48;12.40;;;;;;;8.41;100.00;99215.38;5063129;28;20457;-85
2022/10/08 03:40:59;;;;;;;23.65;11.38;;;;;;;8.61;100.00;99222.78;5064822;28;20025;-85
2022/10/08 03:43:32;;;;;;;26.90;12.07;;;;;;;8.72;100.00;99229.38;5057344;28;20029;-85
2022/10/08 03:45:58;;;;;;;31.08;12.15;;;;;;;8.63;100.00;99236.50;5041395;28;20457;-87
2022/10/08 03:48:24;;;;;;;28.85;12.43;;;;;;;8.74;100.00;99245.72;5065184;28;20029;-86
2022/10/08 03:51:01;;;;;;;32.17;12.18;;;;;;;8.67;100.00;99235.16;5064252;28;20386;-87
2022/10/08 03:53:31;;;;;;;25.35;11.88;;;;;;;8.77;100.00;99260.28;5065693;28;20115;-87
2022/10/08 03:56:03;;;;;;;32.35;11.88;;;;;;;8.66;100.00;99258.88;5068371;28;20466;-86
2022/10/08 03:58:28;;;;;;;26.52;10.52;;;;;;;8.65;100.00;99252.03;5065607;28;20031;-88
2022/10/08 04:00:58;;;;;;;29.38;10.23;;;;;;;8.41;100.00;99231.06;5062037;28;20445;-87
2022/10/08 04:03:24;;;;;;;24.08;9.88;;;;;;;8.63;100.00;99267.09;5066281;28;20120;-88
2022/10/08 04:05:50;;;;;;;24.85;9.82;;;;;;;8.40;100.00;99246.97;5050053;28;20037;-86
2022/10/08 04:08:18;;;;;;;25.17;10.27;;;;;;;8.41;100.00;99257.25;5065410;28;20033;-88
2022/10/08 04:10:50;;;;;;;19.95;8.77;;;;;;;8.32;100.00;99274.00;5041370;28;20036;-87
2022/10/08 04:13:16;;;;;;;21.45;8.98;;;;;;;8.22;100.00;99268.16;5066155;28;20028;-86
2022/10/08 04:15:43;;;;;;;21.65;8.82;;;;;;;8.21;100.00;99285.66;5066431;28;20398;-87
2022/10/08 04:18:11;;;;;;;19.90;9.18;;;;;;;8.15;100.00;99273.25;5063481;28;20049;-87
2022/10/08 04:20:44;;;;;;;20.00;8.00;;;;;;;8.02;100.00;99273.84;5057863;28;20037;-88
2022/10/08 04:23:10;;;;;;;20.40;8.18;;;;;;;7.86;100.00;99270.34;5065016;28;20443;-86
2022/10/08 04:25:37;;;;;;;18.95;8.20;;;;;;;7.83;100.00;99267.25;5061829;28;20039;-87
2022/10/08 04:28:03;;;;;;;23.85;9.57;;;;;;;7.84;100.00;99268.88;5067231;28;20124;-88
2022/10/08 04:30:29;;;;;;;23.70;9.00;;;;;;;7.84;100.00;99282.75;5064986;28;20516;-86
2022/10/08 04:32:55;;;;;;;27.77;9.07;;;;;;;7.75;100.00;99265.47;5066615;28;20028;-87
2022/10/08 04:35:21;;;;;;;29.13;9.85;;;;;;;7.88;100.00;99267.53;5048244;28;20119;-86
2022/10/08 04:37:49;;;;;;;25.15;9.55;;;;;;;7.97;100.00;99276.97;5065919;28;20109;-88
2022/10/08 04:40:15;;;;;;;25.33;8.57;;;;;;;7.96;100.00;99275.34;5063704;28;20032;-89
2022/10/08 04:42:40;;;;;;;22.38;8.50;;;;;;;7.90;100.00;99276.03;5048310;28;20174;-86
2022/10/08 04:45:07;;;;;;;18.00;6.85;;;;;;;7.93;100.00;99274.88;5063408;28;20112;-88
2022/10/08 04:47:32;;;;;;;23.65;6.30;;;;;;;8.05;100.00;99299.63;5062835;28;20037;-87
2022/10/08 04:49:58;;;;;;;29.67;6.97;;;;;;;8.01;100.00;99298.34;5063743;28;20182;-85
2022/10/08 04:52:23;;;;;;;27.27;6.05;;;;;;;8.07;100.00;99302.09;5045712;28;20028;-85
2022/10/08 04:54:49;;;;;;;17.77;5.78;;;;;;;7.82;100.00;99274.25;5063997;28;20044;-84
2022/10/08 04:57:14;;;;;;;23.88;5.43;;;;;;;7.92;100.00;99304.63;5063020;28;20052;-84
2022/10/08 04:59:40;;;;;;;17.48;5.03;;;;;;;7.94;100.00;99318.31;5063101;28;20056;-86
2022/10/08 05:02:06;;;;;;;26.77;6.10;;;;;;;7.93;100.00;99321.91;5062381;28;20029;-84
2022/10/08 05:04:32;;;;;;;20.73;4.15;;;;;;;8.07;100.00;99338.69;5062970;28;20021;-85
2022/10/08 05:06:57;;;;;;;15.60;3.97;;;;;;;7.98;100.00;99330.06;5064364;28;20192;-85
2022/10/08 05:09:23;;;;;;;27.70;4.97;;;;;;;7.94;100.00;99323.56;5062253;28;20032;-85
2022/10/08 05:11:49;;;;;;;13.73;4.00;;;;;;;7.84;100.00;99324.56;5062408;28;20054;-85
2022/10/08 05:14:15;;;;;;;7.97;3.30;;;;;;;8.02;100.00;99339.19;5060688;28;20032;-85
2022/10/08 05:16:40;;;;;;;17.88;4.00;;;;;;;7.75;100.00;99304.69;5043161;28;20040;-86
2022/10/08 05:19:06;;;;;;;15.52;3.72;;;;;;;7.83;100.00;99340.41;5045907;28;20091;-85
2022/10/08 05:21:32;;;;;;;8.77;2.95;;;;;;;7.80;100.00;99344.19;5065166;28;20035;-86
2022/10/08 05:24:00;;;;;;;12.82;3.00;;;;;;;7.83;100.00;99369.97;5049076;28;20052;-85
2022/10/08 05:26:35;;;;;;;12.38;2.67;;;;;;;7.62;100.00;99352.25;5061096;28;20521;-84
2022/10/08 05:29:01;;;;;;;15.20;3.22;;;;;;;7.40;100.00;99344.13;5064365;28;20051;-85
2022/10/08 05:31:28;;;;;;;11.98;2.72;;;;;;;7.36;100.00;99361.09;5062683;28;20478;-86
2022/10/08 05:33:54;;;;;;;6.88;2.58;;;;;;;7.26;100.00;99363.88;5043517;28;20033;-84
2022/10/08 05:36:25;;;;;;;15.20;3.10;;;;;;;7.15;100.00;99366.84;5064381;28;20056;-85
2022/10/08 05:38:52;;;;;;;17.98;3.70;;;;;;;7.18;100.00;99387.38;5061961;28;20021;-85
2022/10/08 05:41:29;;;;;;;10.85;3.47;;;;;;;7.21;100.00;99400.13;5063245;28;20036;-86
2022/10/08 05:43:55;;;;;;;9.23;2.70;;;;;;;7.17;100.00;99400.59;5062394;28;20467;-86
2022/10/08 05:46:25;;;;;;;12.63;3.05;;;;;;;7.11;100.00;99386.44;5067502;28;20478;-85
2022/10/08 05:48:52;;;;;;;16.70;4.38;;;;;;;7.27;100.00;99409.94;5064296;28;20116;-87
2022/10/08 05:51:18;;;;;;;10.20;2.88;;;;;;;7.19;100.00;99403.88;5059108;28;20026;-86
2022/10/08 05:53:46;;;;;;;13.45;3.33;;;;;;;7.34;100.00;99417.91;5063233;28;20032;-86
2022/10/08 05:56:15;;;;;;;21.73;3.10;;;;;;;7.36;100.00;99421.16;5053887;28;20025;-86
2022/10/08 05:58:41;;;;;;;16.52;2.70;;;;;;;7.40;100.00;99405.97;5058912;28;20390;-87
2022/10/08 06:01:21;;;;;;;24.33;3.88;;;;;;;7.83;100.00;99421.44;5060009;28;20031;-88
2022/10/08 06:03:52;;;;;;;18.67;2.97;;;;;;;7.78;100.00;99408.06;5067049;28;20127;-88
2022/10/08 06:06:19;;;;;;;23.45;3.22;;;;;;;7.95;100.00;99424.50;5063030;28;20036;-87
2022/10/08 06:08:45;;;;;;;30.13;3.17;;;;;;;7.91;100.00;99418.78;5046591;28;20070;-88
2022/10/08 06:11:11;;;;;;;19.15;3.13;;;;;;;8.05;100.00;99435.56;5063085;28;20618;-89
2022/10/08 06:13:37;;;;;;;14.88;2.42;;;;;;;8.00;100.00;99419.59;5065525;28;20166;-90
2022/10/08 06:16:08;;;;;;;18.42;3.35;;;;;;;8.09;100.00;99429.06;5060774;28;20185;-87
2022/10/08 06:18:37;;;;;;;21.80;3.25;;;;;;;7.97;100.00;99423.38;5062939;28;20041;-86
2022/10/08 06:21:08;;;;;;;15.73;2.95;;;;;;;7.82;100.00;99410.16;5044561;28;20036;-86
2022/10/08 06:23:34;;;;;;;20.55;3.28;;;;;;;8.02;100.00;99429.88;5053383;28;20402;-87
2022/10/08 06:26:08;;;;;;;17.13;3.40;;;;;;;8.05;100.00;99419.88;5058476;28;20033;-88
2022/10/08 06:28:34;;;;;;;;;;;;;;;8.31;100.00;99455.44;5066166;28;20044;-85
2022/10/08 06:31:00;;;;;;;15.27;3.13;;;;;;;8.03;100.00;99421.84;5065012;28;19912;-83
2022/10/08 06:33:27;;;;;;;24.58;3.03;;;;;;;8.35;100.00;99454.13;5062870;28;20032;-86
2022/10/08 06:35:53;;;;;;;17.52;3.70;;;;;;;8.32;100.00;99441.38;5058701;28;20422;-85
2022/10/08 06:38:19;;;;;;;12.00;3.50;;;;;;;8.40;100.00;99430.06;5065301;28;20040;-88
2022/10/08 06:40:45;;;;;;;23.73;3.72;;;;;;;8.35;100.00;99429.75;5041835;28;20482;-89
2022/10/08 06:43:18;;;;;;;30.88;4.13;;;;;;;8.56;100.00;99445.72;5059106;28;20029;-86
2022/10/08 06:45:45;;;;;;;18.08;4.40;;;;;;;8.56;100.00;99443.13;5062655;28;20119;-84
2022/10/08 06:48:12;;;;;;;16.20;2.88;;;;;;;8.77;100.00;99459.19;5058632;28;20129;-86
2022/10/08 06:50:38;;;;;;;19.88;3.38;;;;;;;8.60;100.00;99442.75;5042832;28;20037;-87
2022/10/08 06:53:05;;;;;;;15.85;4.07;;;;;;;8.71;100.00;99455.44;5055829;28;20033;-89
2022/10/08 06:55:32;;;;;;;15.93;3.25;;;;;;;8.81;100.00;99469.16;5035761;28;20029;-88
2022/10/08 06:57:58;;;;;;;22.95;3.38;;;;;;;8.96;100.00;99477.06;5040926;28;20070;-91
2022/10/08 07:00:24;;;;;;;14.63;3.42;;;;;;;8.94;100.00;99489.53;5058888;28;20025;-88
2022/10/08 07:02:50;;;;;;;17.08;2.88;;;;;;;8.57;100.00;99449.16;5066035;28;20032;-89
2022/10/08 07:05:19;;;;;;;17.45;3.63;;;;;;;8.83;100.00;99479.44;5056116;28;20087;-89
2022/10/08 07:07:45;;;;;;;17.52;3.35;;;;;;;8.41;100.00;99439.56;5036717;28;20037;-89
2022/10/08 07:10:10;;;;;;;15.88;3.17;;;;;;;8.59;100.00;99473.34;5069601;28;20387;-83
2022/10/08 07:12:36;;;;;;;16.73;3.00;;;;;;;8.75;100.00;99490.78;5058634;28;20035;-88
2022/10/08 07:15:02;;;;;;;16.33;3.13;;;;;;;8.78;100.00;99500.06;5054088;28;20024;-88
2022/10/08 07:17:28;;;;;;;16.00;2.97;;;;;;;9.07;100.00;99516.97;5061320;28;20040;-87
2022/10/08 07:19:55;;;;;;;16.83;4.15;;;;;;;9.00;100.00;99512.38;5058672;28;20032;-88
2022/10/08 07:22:21;;;;;;;15.73;3.58;;;;;;;8.90;100.00;99488.25;5064924;28;20032;-85
2022/10/08 07:24:47;;;;;;;13.13;3.22;;;;;;;9.10;100.00;99493.03;5057260;28;20032;-87
2022/10/08 07:27:13;;;;;;;15.77;3.40;;;;;;;9.12;100.00;99488.44;5057740;28;20039;-87
2022/10/08 07:29:39;;;;;;;22.08;3.22;;;;;;;9.36;100.00;99504.97;5043899;28;20162;-84
2022/10/08 07:32:04;;;;;;;11.20;3.28;;;;;;;9.26;100.00;99495.56;5045663;28;20580;-85
2022/10/08 07:34:30;;;;;;;16.50;3.28;;;;;;;9.42;100.00;99510.34;5063251;28;20115;-88
2022/10/08 07:36:55;;;;;;;14.45;4.82;;;;;;;9.52;100.00;99531.06;5050211;28;20037;-85
2022/10/08 07:39:21;;;;;;;15.85;2.83;;;;;;;9.54;100.00;99515.97;5064046;28;20033;-85
2022/10/08 07:41:48;;;;;;;24.48;3.20;;;;;;;9.64;100.00;99534.06;5061741;28;20499;-85
2022/10/08 07:44:15;;;;;;;15.63;2.70;;;;;;;9.61;100.00;99525.75;5057276;28;20028;-88
2022/10/08 07:46:43;;;;;;;24.92;3.63;;;;;;;9.60;100.00;99518.88;5061904;28;20040;-87
2022/10/08 07:49:19;;;;;;;20.00;3.58;;;;;;;9.65;100.00;99540.94;5059023;28;20036;-90
2022/10/08 07:51:45;;;;;;;11.63;4.10;;;;;;;9.70;100.00;99537.81;5062042;28;20143;-90
2022/10/08 07:54:14;;;;;;;13.88;3.08;;;;;;;9.57;100.00;99544.44;5064959;28;20068;-89
2022/10/08 07:56:40;;;;;;;8.52;2.35;;;;;;;9.72;100.00;99536.63;5039652;28;20386;-87
2022/10/08 07:59:06;;;;;;;10.38;3.15;;;;;;;10.02;100.00;99571.78;5067000;28;20024;-89
2022/10/08 08:01:33;;;;;;;16.83;3.13;;;;;;;9.66;100.00;99542.56;5059638;28;20529;-88
2022/10/08 08:04:02;;;;;;;13.05;2.70;;;;;;;9.85;100.00;99566.69;5047764;28;20041;-87
2022/10/08 08:06:29;;;;;;;19.00;3.10;;;;;;;9.84;100.00;99549.31;5066587;28;20036;-85
2022/10/08 08:08:54;;;;;;;25.95;3.35;;;;;;;9.97;100.00;99570.53;5057377;28;20056;-84
2022/10/08 08:11:22;;;;;;;15.32;3.78;;;;;;;9.85;100.00;99577.16;5067862;28;20109;-84
2022/10/08 08:13:48;;;;;;;14.13;3.65;;;;;;;10.02;100.00;99579.66;5048300;28;20041;-88
2022/10/08 08:16:25;;;;;;;14.55;2.55;;;;;;;9.99;100.00;99593.94;5048741;28;20056;-88
2022/10/08 08:18:55;;;;;;;14.70;3.08;;;;;;;9.76;100.00;99542.34;5064883;28;20080;-88
2022/10/08 08:21:28;;;;;;;20.17;3.20;;;;;;;10.15;100.00;99608.72;5063455;28;20028;-90
2022/10/08 08:23:55;;;;;;;17.85;2.90;;;;;;;10.05;100.00;99577.50;5066259;28;20017;-91
2022/10/08 08:26:27;;;;;;;16.35;4.07;;;;;;;10.10;100.00;99585.66;5062195;28;20025;-88
2022/10/08 08:29:06;;;;;;;22.33;3.70;;;;;;;9.93;100.00;99605.13;5063162;28;20495;-86
2022/10/08 08:31:38;;;;;;;9.85;2.38;;;;;;;9.84;100.00;99562.44;5049505;28;20167;-88
2022/10/08 08:34:07;;;;;;;12.05;2.63;;;;;;;10.52;100.00;99632.53;5068138;28;20028;-88
2022/10/08 08:36:40;;;;;;;19.80;3.72;;;;;;;10.39;100.00;99605.03;5058911;28;20387;-88
2022/10/08 08:39:07;;;;;;;23.23;3.08;;;;;;;10.81;100.00;99631.72;5048607;28;20027;-87
2022/10/08 08:42:06;;;;;;;12.18;2.72;;;;;;;10.78;100.00;99639.97;5068897;28;20056;-87
2022/10/08 08:44:34;;;;;;;11.25;2.92;;;;;;;10.55;100.00;99629.53;5062762;28;20117;-87
2022/10/08 08:47:11;;;;;;;22.58;3.58;;;;;;;10.78;100.00;99639.13;5059413;28;20581;-88
2022/10/08 08:49:46;;;;;;;23.48;3.45;;;;;;;10.61;100.00;99649.00;5060871;28;20064;-86
2022/10/08 08:52:15;;;;;;;18.00;3.30;;;;;;;10.78;100.00;99647.00;5066113;28;20036;-89
2022/10/08 08:54:42;;;;;;;19.75;3.85;;;;;;;10.82;100.00;99629.94;5062135;28;20390;-87
2022/10/08 08:57:28;;;;;;;11.35;2.60;;;;;;;11.06;100.00;99651.66;5060942;28;20029;-88
2022/10/08 09:00:04;;;;;;;18.25;2.63;;;;;;;11.29;100.00;99665.47;5065040;28;20079;-88
2022/10/08 09:05:32;;;;;;;17.13;3.47;;;;;;;11.24;100.00;99636.31;5061603;28;20119;-89
2022/10/08 09:08:14;;;;;;;11.77;2.70;;;;;;;11.71;100.00;99672.81;5058996;28;20035;-89
2022/10/08 09:10:54;;;;;;;16.05;3.13;;;;;;;11.67;100.00;99663.69;5061097;28;20402;-89
2022/10/08 09:13:42;;;;;;;10.85;2.95;;;;;;;11.73;100.00;99686.59;5044648;28;20029;-88
2022/10/08 09:16:12;;;;;;;13.80;3.00;;;;;;;11.40;100.00;99684.41;5035339;28;20128;-87
2022/10/08 09:18:41;;;;;;;15.32;3.13;;;;;;;11.70;100.00;99690.44;5042741;28;20392;-85
2022/10/08 09:21:07;;;;;;;13.43;2.72;;;;;;;11.53;100.00;99687.19;5046572;28;20396;-87
2022/10/08 09:23:35;;;;;;;15.38;2.67;;;;;;;11.39;100.00;99667.81;5057591;28;20043;-89
2022/10/08 09:26:08;;;;;;;18.55;4.15;;;;;;;11.17;100.00;99674.00;5060244;28;20449;-87
2022/10/08 09:28:39;;;;;;;15.00;3.58;;;;;;;11.53;100.00;99692.44;5061427;28;20028;-88
2022/10/08 09:31:37;;;;;;;11.25;3.08;;;;;;;11.40;100.00;99679.16;5063973;28;20021;-85
2022/10/08 09:34:14;;;;;;;16.38;3.10;;;;;;;11.21;100.00;99688.41;5037750;28;20127;-86
2022/10/08 09:36:52;;;;;;;15.40;2.97;;;;;;;11.40;100.00;99700.19;5059135;28;20035;-85
2022/10/08 09:39:26;;;;;;;15.10;3.53;;;;;;;11.24;100.00;99686.25;5062233;28;20457;-83
2022/10/08 09:42:13;;;;;;;13.00;2.85;;;;;;;11.32;100.00;99687.13;5057585;28;20036;-87
2022/10/08 09:44:45;;;;;;;15.27;3.20;;;;;;;11.21;100.00;99681.34;5051860;28;20078;-87
2022/10/08 09:47:13;;;;;;;11.25;2.58;;;;;;;11.26;100.00;99683.41;5059456;28;21996;-88
2022/10/08 09:49:39;;;;;;;14.32;2.95;;;;;;;11.26;100.00;99681.63;5048869;28;20037;-87
2022/10/08 09:52:14;;;;;;;15.15;2.80;;;;;;;11.52;100.00;99703.97;5058399;28;20525;-88
2022/10/08 09:55:15;;;;;;;16.60;3.25;;;;;;;11.76;100.00;99711.72;5061413;28;20031;-89
2022/10/08 09:57:45;;;;;;;11.20;2.47;;;;;;;11.77;100.00;99687.84;5058038;28;20093;-88
2022/10/08 10:00:30;;;;;;;13.50;2.70;;;;;;;11.98;100.00;99704.66;5063358;28;20108;-88
2022/10/08 10:02:58;;;;;;;9.75;2.58;;;;;;;11.98;100.00;99675.69;5048067;28;20047;-89
2022/10/08 10:05:30;;;;;;;18.92;3.28;;;;;;;12.02;100.00;99684.06;5059154;28;20064;-88
2022/10/08 10:07:56;;;;;;;15.15;2.60;;;;;;;12.13;100.00;99681.75;5047693;28;20035;-87
2022/10/08 10:10:27;;;;;;;18.40;2.95;;;;;;;12.48;100.00;99711.81;5047448;28;20128;-89
2022/10/08 10:13:03;;;;;;;15.63;3.13;;;;;;;12.71;100.00;99698.41;5062414;28;20027;-88
2022/10/08 10:15:38;;;;;;;10.57;2.67;;;;;;;12.82;100.00;99676.00;5064871;28;20566;-88
2022/10/08 10:18:11;;;;;;;9.63;2.88;;;;;;;13.12;100.00;99718.75;5060574;28;20483;-87
2022/10/08 10:20:41;;;;;;;17.48;3.35;;;;;;;13.28;100.00;99716.81;5041479;28;20044;-88
2022/10/08 10:23:49;;;;;;;13.23;3.08;;;;;;;13.03;100.00;99733.06;5064708;28;20386;-89
2022/10/08 10:26:18;;;;;;;12.82;2.55;;;;;;;13.02;100.00;99712.19;5031561;28;20094;-89
2022/10/08 10:28:51;;;;;;;13.77;3.08;;;;;;;13.13;100.00;99712.47;5054050;28;20383;-89
2022/10/08 10:31:51;;;;;;;12.30;3.00;;;;;;;13.18;100.00;99738.25;5054380;28;20033;-91
2022/10/08 10:34:23;;;;;;;11.82;2.80;;;;;;;13.11;100.00;99714.47;5045120;28;20395;-87
2022/10/08 10:36:51;;;;;;;16.42;2.85;;;;;;;12.93;100.00;99735.25;5039005;28;20124;-86
2022/10/08 10:39:26;;;;;;;10.10;2.72;;;;;;;13.43;100.00;99729.88;5063250;28;20025;-87
2022/10/08 10:41:58;;;;;;;14.10;2.80;;;;;;;13.76;100.00;99716.00;5056088;28;20075;-86
2022/10/08 10:44:41;;;;;;;8.07;2.90;;;;;;;13.80;100.00;99734.88;5057119;28;20090;-88
2022/10/08 10:47:11;;;;;;;7.28;2.78;;;;;;;13.45;100.00;99700.66;5045765;28;20496;-87
2022/10/08 10:49:41;;;;;;;9.65;2.92;;;;;;;13.57;100.00;99702.56;5063165;28;20060;-88
2022/10/08 10:52:43;;;;;;;9.52;2.58;;;;;;;14.05;100.00;99719.31;5055726;28;20035;-89
2022/10/08 10:55:21;;;;;;;8.35;2.80;;;;;;;13.88;100.00;99731.25;5031564;28;20119;-89
2022/10/08 10:57:52;;;;;;;14.23;2.80;;;;;;;13.47;100.00;99731.09;5060708;28;20112;-89
2022/10/08 11:00:25;;;;;;;10.38;3.00;;;;;;;13.52;100.00;99733.97;5063113;28;20570;-89
2022/10/08 11:03:11;;;;;;;11.40;3.60;;;;;;;13.73;100.00;99731.41;5049618;28;20048;-90
2022/10/08 11:05:40;;;;;;;9.65;2.75;;;;;;;13.53;100.00;99714.47;5061737;28;20032;-91
2022/10/08 11:08:25;;;;;;;8.75;2.83;;;;;;;13.32;100.00;99722.47;5059874;28;20066;-91
2022/10/08 11:11:28;;;;;;;9.80;2.55;;;;;;;13.15;100.00;99722.78;5050931;28;20037;-88
2022/10/08 11:14:05;;;;;;;13.85;3.05;;;;;;;13.52;100.00;99733.16;5041968;28;20087;-88
2022/10/08 11:16:30;;;;;;;7.65;3.10;;;;;;;13.68;100.00;99732.00;5044195;28;20075;-85
2022/10/08 11:18:59;;;;;;;8.00;2.58;;;;;;;14.12;100.00;99741.22;5044411;28;20447;-90
2022/10/08 11:21:43;;;;;;;14.05;3.05;;;;;;;14.37;100.00;99729.28;5047546;28;20033;-89
2022/10/08 11:24:08;;;;;;;;;;;;;;;14.33;100.00;99726.22;5045839;28;20037;-87
2022/10/08 11:26:41;;;;;;;11.82;2.60;;;;;;;14.13;100.00;99708.53;5059469;28;19999;-89
2022/10/08 11:29:13;;;;;;;10.18;3.15;;;;;;;14.25;100.00;99737.00;5060600;28;20021;-91
2022/10/08 11:31:42;;;;;;;7.97;3.63;;;;;;;13.75;100.00;99719.63;5040529;28;20048;-88
2022/10/08 11:34:37;;;;;;;9.30;2.90;;;;;;;13.53;100.00;99716.31;5043400;28;20079;-87
2022/10/08 11:37:28;;;;;;;7.55;3.80;;;;;;;13.70;100.00;99745.78;5060295;28;20033;-91
2022/10/08 11:39:53;;;;;;;8.10;3.28;;;;;;;13.59;100.00;99727.91;5064111;28;20056;-91
2022/10/08 11:42:32;;;;;;;11.25;3.05;;;;;;;13.84;100.00;99731.66;5085543;28;20040;-89
2022/10/08 11:45:24;;;;;;;11.60;2.80;;;;;;;13.50;100.00;99722.78;5061807;28;20513;-90
2022/10/08 11:48:20;;;;;;;9.52;2.72;;;;;;;13.42;100.00;99717.66;5038014;28;20170;-89